Bookmark and Share
Track history (hours):
 

M4

Last reported at 2014-Apr-15 06:34 UTC. Time now 2014-Apr-23 09:34 UTC.
Position N 18°10' W 063°07'.
Warning: this ship's position is 8 days out of date.

Length 42 m; draft 2.4 m.

Type: Pleasure craft. MMSI: 538708350.

NotesDate/timePositionNaut miles runAvg speedWind from/ knotsBaromVisibWave heightAir tempDewpointWater temp
2014-Apr-15 06:34N 18°10' W 063°07'0 0.0
2014-Apr-14 09:33N 18°10' W 063°07'6 0.5
2014-Apr-13 20:24N 18°05' W 063°10'4 3.8
2014-Apr-13 19:16N 18°02' W 063°06'0 0.0
2014-Apr-13 18:16N 18°02' W 063°06'0 0.0
2014-Apr-13 17:16N 18°02' W 063°06'0 0.0
2014-Apr-13 16:16N 18°02' W 063°06'0 0.0
2014-Apr-13 15:13N 18°02' W 063°06'0 0.0
2014-Apr-13 14:31N 18°02' W 063°06'0 0.0
2014-Apr-13 13:28N 18°02' W 063°06'0 0.0
2014-Apr-13 12:28N 18°02' W 063°06'0 0.0
2014-Apr-13 11:32N 18°02' W 063°06'0 0.0
2014-Apr-13 10:07N 18°02' W 063°06'0 0.0
2014-Apr-13 09:28N 18°02' W 063°06'0 0.0
2014-Apr-13 08:13N 18°02' W 063°06'0 0.0
2014-Apr-13 07:09N 18°02' W 063°06'0 0.0
2014-Apr-13 06:31N 18°02' W 063°06'0 0.0
2014-Apr-13 05:32N 18°02' W 063°06'0 0.0
2014-Apr-13 04:33N 18°02' W 063°06'0 0.0
2014-Apr-13 03:32N 18°02' W 063°06'0 0.0
2014-Apr-13 02:26N 18°02' W 063°06'0 0.0
2014-Apr-13 01:08N 18°02' W 063°06'0 0.0
2014-Apr-13 00:23N 18°02' W 063°06'0 0.0
2014-Apr-12 23:33N 18°02' W 063°06'0 0.0
2014-Apr-12 22:20N 18°02' W 063°06'0 0.0
2014-Apr-12 21:31N 18°02' W 063°06'0 0.0
2014-Apr-12 20:28N 18°02' W 063°06'0 0.0
2014-Apr-12 19:28N 18°02' W 063°06'0 0.0
2014-Apr-12 18:24N 18°02' W 063°06'0 0.0
2014-Apr-12 17:30N 18°02' W 063°06'0 0.0
2014-Apr-12 16:30N 18°02' W 063°06'0 0.0
2014-Apr-12 15:32N 18°02' W 063°06'0 0.0
2014-Apr-12 14:30N 18°02' W 063°06'0 0.0
2014-Apr-12 13:33N 18°02' W 063°06'0 0.0
2014-Apr-12 12:26N 18°02' W 063°06'0 0.0
2014-Apr-12 11:14N 18°02' W 063°06'0 0.0
2014-Apr-12 10:26N 18°02' W 063°06'9 4.5
2014-Apr-12 08:31N 18°03' W 063°15'10 9.6
2014-Apr-12 07:31N 18°06' W 063°25'  

Dump ship's entire track history

sailing weather and tide predictions

M4 — V7YF6 — position and weather